Ross, Iowa
Current Conditions -  °F | °C
As of 5:15 AM on Friday 24 Oct 2014 (Local Time) from KADU Reporting Station
Haze Haze  
Wind Chill: 55°   Ceiling: 200
Heat Index: 55°   Visibility: 1mi
Dew Point: 52°   Wind: 8mph
Humidity: 88%   Direction: 190°S
Pressure: 29.98"   Gusts: NA
Location:  41.7468°N, 94.8805°W
Report Text: KADU 241015Z AUTO 19007KT 1SM HZ OVC002 13/11 A2998 RMK AO2
Loading
Personal Weather Stations






























Interactive Weather Map
Tropical Storm Tracking
New forecast layout! Learn more

10-Day Weather Forecast

Advertisements
Track Severe Weather on mobile